SVAE weather

Montellano Airport
Zulia, Venezuela

Public forecast

Using degrees Celsius for public forecast. Weather courtesy of forecast.io.

METAR (pilot weather report)

Closest report is Alfonso L√≥pez Pumarejo Airport, 45.8 nm (84.9 km) W. Retrieved 2019/04/18 18:00 UTC (23 minutes ago):

SKVP 181800Z 07012KT 9999 FEW020 BKN200 34/19 A2983

TAF (pilot weather forecast)

Closest forecast is La Chinita International Airport, 46.6 nm (86.2 km) ENE. Retrieved 2019/04/18 18:06 UTC (17 minutes ago):

TAF SVMC 181600Z 1818/1918 02002KT 9000 -DZ BKN016 TX32/19Z TN22/08Z TEMPO 1818/1822 05004KT 9999 FEW016 SCT100